sensor_id;sensor_type;location;lat;lon;timestamp;pressure;altitude;pressure_sealevel;temperature
58929;BMP180;44713;53.378;10.022;2023-03-12T00:02:04;100783.00;;;1.50
58929;BMP180;44713;53.378;10.022;2023-03-12T00:04:31;100796.00;;;1.50
58929;BMP180;44713;53.378;10.022;2023-03-12T00:06:56;100786.00;;;1.50
58929;BMP180;44713;53.378;10.022;2023-03-12T00:09:22;100790.00;;;1.40
58929;BMP180;44713;53.378;10.022;2023-03-12T00:11:47;100790.00;;;1.50
58929;BMP180;44713;53.378;10.022;2023-03-12T00:14:13;100793.00;;;1.40
58929;BMP180;44713;53.378;10.022;2023-03-12T00:16:38;100798.00;;;1.40
58929;BMP180;44713;53.378;10.022;2023-03-12T00:19:04;100796.00;;;1.40
58929;BMP180;44713;53.378;10.022;2023-03-12T00:21:29;100794.00;;;1.30
58929;BMP180;44713;53.378;10.022;2023-03-12T00:23:54;100789.00;;;1.40
58929;BMP180;44713;53.378;10.022;2023-03-12T00:26:20;100796.00;;;1.30
58929;BMP180;44713;53.378;10.022;2023-03-12T00:28:47;100803.00;;;1.30
58929;BMP180;44713;53.378;10.022;2023-03-12T00:31:16;100803.00;;;1.20
58929;BMP180;44713;53.378;10.022;2023-03-12T00:33:42;100803.00;;;1.30
58929;BMP180;44713;53.378;10.022;2023-03-12T00:36:07;100805.00;;;1.30
58929;BMP180;44713;53.378;10.022;2023-03-12T00:38:32;100800.00;;;1.30
58929;BMP180;44713;53.378;10.022;2023-03-12T00:40:58;100803.00;;;1.30
58929;BMP180;44713;53.378;10.022;2023-03-12T00:43:23;100802.00;;;1.40
58929;BMP180;44713;53.378;10.022;2023-03-12T00:45:48;100805.00;;;1.30
58929;BMP180;44713;53.378;10.022;2023-03-12T00:48:14;100798.00;;;1.30
58929;BMP180;44713;53.378;10.022;2023-03-12T00:50:39;100797.00;;;1.30
58929;BMP180;44713;53.378;10.022;2023-03-12T00:53:04;100800.00;;;1.30
58929;BMP180;44713;53.378;10.022;2023-03-12T00:55:30;100801.00;;;1.30
58929;BMP180;44713;53.378;10.022;2023-03-12T00:57:55;100795.00;;;1.10
58929;BMP180;44713;53.378;10.022;2023-03-12T01:00:21;100796.00;;;1.20
58929;BMP180;44713;53.378;10.022;2023-03-12T01:02:46;100789.00;;;1.10
58929;BMP180;44713;53.378;10.022;2023-03-12T01:05:13;100797.00;;;1.20
58929;BMP180;44713;53.378;10.022;2023-03-12T01:07:38;100800.00;;;1.10
58929;BMP180;44713;53.378;10.022;2023-03-12T01:10:05;100791.00;;;1.20
58929;BMP180;44713;53.378;10.022;2023-03-12T01:12:31;100800.00;;;1.20
58929;BMP180;44713;53.378;10.022;2023-03-12T01:14:57;100800.00;;;1.20
58929;BMP180;44713;53.378;10.022;2023-03-12T01:17:22;100798.00;;;1.20
58929;BMP180;44713;53.378;10.022;2023-03-12T01:19:47;100795.00;;;1.20
58929;BMP180;44713;53.378;10.022;2023-03-12T01:22:13;100797.00;;;1.20
58929;BMP180;44713;53.378;10.022;2023-03-12T01:24:38;100804.00;;;1.20
58929;BMP180;44713;53.378;10.022;2023-03-12T01:27:03;100798.00;;;1.10
58929;BMP180;44713;53.378;10.022;2023-03-12T01:29:29;100802.00;;;1.10
58929;BMP180;44713;53.378;10.022;2023-03-12T01:31:55;100803.00;;;1.10
58929;BMP180;44713;53.378;10.022;2023-03-12T01:34:21;100799.00;;;1.20
58929;BMP180;44713;53.378;10.022;2023-03-12T01:36:46;100810.00;;;1.20
58929;BMP180;44713;53.378;10.022;2023-03-12T01:39:12;100808.00;;;1.10
58929;BMP180;44713;53.378;10.022;2023-03-12T01:41:37;100809.00;;;1.10
58929;BMP180;44713;53.378;10.022;2023-03-12T01:44:03;100803.00;;;1.10
58929;BMP180;44713;53.378;10.022;2023-03-12T01:46:38;100801.00;;;1.10
58929;BMP180;44713;53.378;10.022;2023-03-12T01:49:14;100807.00;;;1.10
58929;BMP180;44713;53.378;10.022;2023-03-12T01:52:08;100800.00;;;1.00
58929;BMP180;44713;53.378;10.022;2023-03-12T01:54:42;100813.00;;;0.90
58929;BMP180;44713;53.378;10.022;2023-03-12T01:57:11;100807.00;;;1.00
58929;BMP180;44713;53.378;10.022;2023-03-12T01:59:43;100819.00;;;0.90
58929;BMP180;44713;53.378;10.022;2023-03-12T02:02:09;100806.00;;;0.80
58929;BMP180;44713;53.378;10.022;2023-03-12T02:04:36;100809.00;;;0.80
58929;BMP180;44713;53.378;10.022;2023-03-12T02:07:06;100805.00;;;0.70
58929;BMP180;44713;53.378;10.022;2023-03-12T02:09:34;100810.00;;;0.70
58929;BMP180;44713;53.378;10.022;2023-03-12T02:12:01;100805.00;;;0.70
58929;BMP180;44713;53.378;10.022;2023-03-12T02:14:26;100811.00;;;0.70
58929;BMP180;44713;53.378;10.022;2023-03-12T02:16:53;100807.00;;;0.70
58929;BMP180;44713;53.378;10.022;2023-03-12T02:19:25;100811.00;;;0.70
58929;BMP180;44713;53.378;10.022;2023-03-12T02:21:51;100811.00;;;0.60
58929;BMP180;44713;53.378;10.022;2023-03-12T02:24:34;100803.00;;;0.70
58929;BMP180;44713;53.378;10.022;2023-03-12T02:27:03;100805.00;;;0.80
58929;BMP180;44713;53.378;10.022;2023-03-12T02:29:32;100801.00;;;0.70
58929;BMP180;44713;53.378;10.022;2023-03-12T02:31:59;100806.00;;;0.60
58929;BMP180;44713;53.378;10.022;2023-03-12T02:34:27;100808.00;;;0.60
58929;BMP180;44713;53.378;10.022;2023-03-12T02:36:52;100810.00;;;0.60
58929;BMP180;44713;53.378;10.022;2023-03-12T02:39:18;100805.00;;;0.60
58929;BMP180;44713;53.378;10.022;2023-03-12T02:41:53;100812.00;;;0.60
58929;BMP180;44713;53.378;10.022;2023-03-12T02:44:23;100812.00;;;0.60
58929;BMP180;44713;53.378;10.022;2023-03-12T02:46:53;100797.00;;;0.60
58929;BMP180;44713;53.378;10.022;2023-03-12T02:49:21;100809.00;;;0.60
58929;BMP180;44713;53.378;10.022;2023-03-12T02:51:48;100805.00;;;0.60
58929;BMP180;44713;53.378;10.022;2023-03-12T02:54:15;100805.00;;;0.60
58929;BMP180;44713;53.378;10.022;2023-03-12T02:56:41;100802.00;;;0.60
58929;BMP180;44713;53.378;10.022;2023-03-12T02:59:07;100807.00;;;0.60
58929;BMP180;44713;53.378;10.022;2023-03-12T03:01:36;100797.00;;;0.60
58929;BMP180;44713;53.378;10.022;2023-03-12T03:04:03;100811.00;;;0.50
58929;BMP180;44713;53.378;10.022;2023-03-12T03:06:29;100812.00;;;0.50
58929;BMP180;44713;53.378;10.022;2023-03-12T03:08:56;100810.00;;;0.50
58929;BMP180;44713;53.378;10.022;2023-03-12T03:11:22;100820.00;;;0.50
58929;BMP180;44713;53.378;10.022;2023-03-12T03:13:51;100812.00;;;0.40
58929;BMP180;44713;53.378;10.022;2023-03-12T03:16:17;100821.00;;;0.30
58929;BMP180;44713;53.378;10.022;2023-03-12T03:18:42;100822.00;;;0.30
58929;BMP180;44713;53.378;10.022;2023-03-12T03:21:09;100807.00;;;0.20
58929;BMP180;44713;53.378;10.022;2023-03-12T03:23:36;100809.00;;;0.30
58929;BMP180;44713;53.378;10.022;2023-03-12T03:26:02;100799.00;;;0.20
58929;BMP180;44713;53.378;10.022;2023-03-12T03:28:28;100804.00;;;0.20
58929;BMP180;44713;53.378;10.022;2023-03-12T03:30:56;100804.00;;;0.20
58929;BMP180;44713;53.378;10.022;2023-03-12T03:33:33;100797.00;;;0.20
58929;BMP180;44713;53.378;10.022;2023-03-12T03:36:00;100807.00;;;0.20
58929;BMP180;44713;53.378;10.022;2023-03-12T03:38:30;100803.00;;;0.20
58929;BMP180;44713;53.378;10.022;2023-03-12T03:40:55;100805.00;;;0.10
58929;BMP180;44713;53.378;10.022;2023-03-12T03:43:21;100801.00;;;0.10
58929;BMP180;44713;53.378;10.022;2023-03-12T03:45:47;100805.00;;;0.00
58929;BMP180;44713;53.378;10.022;2023-03-12T03:48:14;100813.00;;;0.00
58929;BMP180;44713;53.378;10.022;2023-03-12T03:50:40;100808.00;;;0.00
58929;BMP180;44713;53.378;10.022;2023-03-12T03:53:06;100820.00;;;0.10
58929;BMP180;44713;53.378;10.022;2023-03-12T03:55:37;100819.00;;;0.00
58929;BMP180;44713;53.378;10.022;2023-03-12T03:58:03;100819.00;;;0.00
58929;BMP180;44713;53.378;10.022;2023-03-12T04:00:29;100821.00;;;0.00
58929;BMP180;44713;53.378;10.022;2023-03-12T04:02:54;100814.00;;;-0.10
58929;BMP180;44713;53.378;10.022;2023-03-12T04:05:20;100804.00;;;-0.10
58929;BMP180;44713;53.378;10.022;2023-03-12T04:07:47;100806.00;;;-0.10
58929;BMP180;44713;53.378;10.022;2023-03-12T04:10:14;100814.00;;;-0.10
58929;BMP180;44713;53.378;10.022;2023-03-12T04:12:40;100810.00;;;-0.10
58929;BMP180;44713;53.378;10.022;2023-03-12T04:15:05;100813.00;;;-0.10
58929;BMP180;44713;53.378;10.022;2023-03-12T04:17:31;100807.00;;;-0.20
58929;BMP180;44713;53.378;10.022;2023-03-12T04:19:56;100812.00;;;-0.30
58929;BMP180;44713;53.378;10.022;2023-03-12T04:22:22;100805.00;;;-0.30
58929;BMP180;44713;53.378;10.022;2023-03-12T04:24:48;100815.00;;;-0.20
58929;BMP180;44713;53.378;10.022;2023-03-12T04:27:13;100805.00;;;-0.20
58929;BMP180;44713;53.378;10.022;2023-03-12T04:29:39;100809.00;;;-0.20
58929;BMP180;44713;53.378;10.022;2023-03-12T04:32:06;100804.00;;;-0.30
58929;BMP180;44713;53.378;10.022;2023-03-12T04:34:32;100809.00;;;-0.20
58929;BMP180;44713;53.378;10.022;2023-03-12T04:37:00;100803.00;;;-0.20
58929;BMP180;44713;53.378;10.022;2023-03-12T04:39:26;100800.00;;;-0.20
58929;BMP180;44713;53.378;10.022;2023-03-12T04:41:52;100796.00;;;-0.30
58929;BMP180;44713;53.378;10.022;2023-03-12T04:44:17;100789.00;;;-0.30
58929;BMP180;44713;53.378;10.022;2023-03-12T04:46:43;100795.00;;;-0.30
58929;BMP180;44713;53.378;10.022;2023-03-12T04:49:11;100802.00;;;-0.30
58929;BMP180;44713;53.378;10.022;2023-03-12T04:51:38;100794.00;;;-0.30
58929;BMP180;44713;53.378;10.022;2023-03-12T04:54:04;100798.00;;;-0.30
58929;BMP180;44713;53.378;10.022;2023-03-12T04:56:30;100790.00;;;-0.30
58929;BMP180;44713;53.378;10.022;2023-03-12T04:58:56;100794.00;;;-0.30
58929;BMP180;44713;53.378;10.022;2023-03-12T05:01:28;100792.00;;;-0.30
58929;BMP180;44713;53.378;10.022;2023-03-12T05:03:54;100792.00;;;-0.30
58929;BMP180;44713;53.378;10.022;2023-03-12T05:06:21;100794.00;;;-0.30
58929;BMP180;44713;53.378;10.022;2023-03-12T05:08:47;100796.00;;;-0.30
58929;BMP180;44713;53.378;10.022;2023-03-12T05:11:13;100796.00;;;-0.30
58929;BMP180;44713;53.378;10.022;2023-03-12T05:13:39;100796.00;;;-0.30
58929;BMP180;44713;53.378;10.022;2023-03-12T05:16:05;100797.00;;;-0.30
58929;BMP180;44713;53.378;10.022;2023-03-12T05:18:30;100798.00;;;-0.30
58929;BMP180;44713;53.378;10.022;2023-03-12T05:21:08;100795.00;;;-0.30
58929;BMP180;44713;53.378;10.022;2023-03-12T05:23:35;100808.00;;;-0.30
58929;BMP180;44713;53.378;10.022;2023-03-12T05:26:00;100801.00;;;-0.40
58929;BMP180;44713;53.378;10.022;2023-03-12T05:28:27;100797.00;;;-0.30
58929;BMP180;44713;53.378;10.022;2023-03-12T05:30:56;100794.00;;;-0.20
58929;BMP180;44713;53.378;10.022;2023-03-12T05:33:23;100789.00;;;-0.30
58929;BMP180;44713;53.378;10.022;2023-03-12T05:35:49;100788.00;;;-0.40
58929;BMP180;44713;53.378;10.022;2023-03-12T05:38:14;100789.00;;;-0.30
58929;BMP180;44713;53.378;10.022;2023-03-12T05:40:40;100793.00;;;-0.30
58929;BMP180;44713;53.378;10.022;2023-03-12T05:43:05;100793.00;;;-0.30
58929;BMP180;44713;53.378;10.022;2023-03-12T05:45:32;100790.00;;;-0.30
58929;BMP180;44713;53.378;10.022;2023-03-12T05:47:58;100797.00;;;-0.30
58929;BMP180;44713;53.378;10.022;2023-03-12T05:50:24;100793.00;;;-0.30
58929;BMP180;44713;53.378;10.022;2023-03-12T05:52:49;100790.00;;;-0.30
58929;BMP180;44713;53.378;10.022;2023-03-12T05:55:15;100789.00;;;-0.30
58929;BMP180;44713;53.378;10.022;2023-03-12T05:57:41;100780.00;;;-0.30
58929;BMP180;44713;53.378;10.022;2023-03-12T06:00:08;100783.00;;;-0.30
58929;BMP180;44713;53.378;10.022;2023-03-12T06:02:39;100778.00;;;-0.30
58929;BMP180;44713;53.378;10.022;2023-03-12T06:05:05;100777.00;;;-0.20
58929;BMP180;44713;53.378;10.022;2023-03-12T06:07:31;100773.00;;;-0.20
58929;BMP180;44713;53.378;10.022;2023-03-12T06:09:56;100773.00;;;-0.20
58929;BMP180;44713;53.378;10.022;2023-03-12T06:12:24;100767.00;;;-0.10
58929;BMP180;44713;53.378;10.022;2023-03-12T06:14:50;100770.00;;;-0.10
58929;BMP180;44713;53.378;10.022;2023-03-12T06:17:16;100770.00;;;-0.10
58929;BMP180;44713;53.378;10.022;2023-03-12T06:19:41;100759.00;;;-0.10
58929;BMP180;44713;53.378;10.022;2023-03-12T06:22:08;100776.00;;;0.00
58929;BMP180;44713;53.378;10.022;2023-03-12T06:24:33;100768.00;;;0.00
58929;BMP180;44713;53.378;10.022;2023-03-12T06:27:01;100768.00;;;0.10
58929;BMP180;44713;53.378;10.022;2023-03-12T06:29:27;100768.00;;;0.10
58929;BMP180;44713;53.378;10.022;2023-03-12T06:31:52;100761.00;;;0.10
58929;BMP180;44713;53.378;10.022;2023-03-12T06:34:17;100769.00;;;0.10
58929;BMP180;44713;53.378;10.022;2023-03-12T06:36:43;100763.00;;;0.10
58929;BMP180;44713;53.378;10.022;2023-03-12T06:39:08;100769.00;;;0.10
58929;BMP180;44713;53.378;10.022;2023-03-12T06:41:34;100765.00;;;0.20
58929;BMP180;44713;53.378;10.022;2023-03-12T06:44:00;100762.00;;;0.20
58929;BMP180;44713;53.378;10.022;2023-03-12T06:46:28;100769.00;;;0.20
58929;BMP180;44713;53.378;10.022;2023-03-12T06:48:53;100762.00;;;0.20
58929;BMP180;44713;53.378;10.022;2023-03-12T06:51:19;100759.00;;;0.20
58929;BMP180;44713;53.378;10.022;2023-03-12T06:53:45;100766.00;;;0.30
58929;BMP180;44713;53.378;10.022;2023-03-12T06:56:11;100753.00;;;0.30
58929;BMP180;44713;53.378;10.022;2023-03-12T06:58:36;100753.00;;;0.30
58929;BMP180;44713;53.378;10.022;2023-03-12T07:01:03;100758.00;;;0.40
58929;BMP180;44713;53.378;10.022;2023-03-12T07:03:28;100747.00;;;0.50
58929;BMP180;44713;53.378;10.022;2023-03-12T07:05:55;100761.00;;;0.30
58929;BMP180;44713;53.378;10.022;2023-03-12T07:08:21;100759.00;;;0.40
58929;BMP180;44713;53.378;10.022;2023-03-12T07:10:47;100759.00;;;0.40
58929;BMP180;44713;53.378;10.022;2023-03-12T07:13:12;100760.00;;;0.40
58929;BMP180;44713;53.378;10.022;2023-03-12T07:15:38;100769.00;;;0.60
58929;BMP180;44713;53.378;10.022;2023-03-12T07:18:05;100765.00;;;0.60
58929;BMP180;44713;53.378;10.022;2023-03-12T07:20:31;100763.00;;;0.60
58929;BMP180;44713;53.378;10.022;2023-03-12T07:22:58;100766.00;;;0.60
58929;BMP180;44713;53.378;10.022;2023-03-12T07:25:23;100760.00;;;0.60
58929;BMP180;44713;53.378;10.022;2023-03-12T07:27:48;100750.00;;;0.70
58929;BMP180;44713;53.378;10.022;2023-03-12T07:30:14;100753.00;;;0.70
58929;BMP180;44713;53.378;10.022;2023-03-12T07:32:40;100750.00;;;0.80
58929;BMP180;44713;53.378;10.022;2023-03-12T07:35:05;100748.00;;;0.90
58929;BMP180;44713;53.378;10.022;2023-03-12T07:37:30;100751.00;;;0.90
58929;BMP180;44713;53.378;10.022;2023-03-12T07:39:56;100748.00;;;0.90
58929;BMP180;44713;53.378;10.022;2023-03-12T07:42:21;100747.00;;;1.10
58929;BMP180;44713;53.378;10.022;2023-03-12T07:44:47;100746.00;;;1.20
58929;BMP180;44713;53.378;10.022;2023-03-12T07:47:12;100742.00;;;1.20
58929;BMP180;44713;53.378;10.022;2023-03-12T07:49:38;100736.00;;;1.30
58929;BMP180;44713;53.378;10.022;2023-03-12T07:52:06;100739.00;;;1.30
58929;BMP180;44713;53.378;10.022;2023-03-12T07:54:34;100750.00;;;1.30
58929;BMP180;44713;53.378;10.022;2023-03-12T07:57:00;100749.00;;;1.40
58929;BMP180;44713;53.378;10.022;2023-03-12T07:59:25;100739.00;;;1.30
58929;BMP180;44713;53.378;10.022;2023-03-12T08:01:52;100741.00;;;1.40
58929;BMP180;44713;53.378;10.022;2023-03-12T08:04:17;100741.00;;;1.40
58929;BMP180;44713;53.378;10.022;2023-03-12T08:06:43;100739.00;;;1.50
58929;BMP180;44713;53.378;10.022;2023-03-12T08:09:08;100737.00;;;1.60
58929;BMP180;44713;53.378;10.022;2023-03-12T08:11:34;100735.00;;;1.60
58929;BMP180;44713;53.378;10.022;2023-03-12T08:14:01;100731.00;;;1.70
58929;BMP180;44713;53.378;10.022;2023-03-12T08:16:26;100735.00;;;1.80
58929;BMP180;44713;53.378;10.022;2023-03-12T08:18:51;100737.00;;;1.90
58929;BMP180;44713;53.378;10.022;2023-03-12T08:21:17;100734.00;;;2.20
58929;BMP180;44713;53.378;10.022;2023-03-12T08:23:42;100740.00;;;2.30
58929;BMP180;44713;53.378;10.022;2023-03-12T08:26:08;100739.00;;;2.30
58929;BMP180;44713;53.378;10.022;2023-03-12T08:28:33;100740.00;;;2.30
58929;BMP180;44713;53.378;10.022;2023-03-12T08:30:59;100732.00;;;2.20
58929;BMP180;44713;53.378;10.022;2023-03-12T08:33:24;100740.00;;;2.20
58929;BMP180;44713;53.378;10.022;2023-03-12T08:35:50;100730.00;;;2.30
58929;BMP180;44713;53.378;10.022;2023-03-12T08:38:15;100738.00;;;2.30
58929;BMP180;44713;53.378;10.022;2023-03-12T08:40:41;100726.00;;;2.40
58929;BMP180;44713;53.378;10.022;2023-03-12T08:43:07;100730.00;;;2.40
58929;BMP180;44713;53.378;10.022;2023-03-12T08:45:33;100724.00;;;2.40
58929;BMP180;44713;53.378;10.022;2023-03-12T08:48:01;100732.00;;;2.40
58929;BMP180;44713;53.378;10.022;2023-03-12T08:50:26;100731.00;;;2.50
58929;BMP180;44713;53.378;10.022;2023-03-12T08:52:53;100725.00;;;2.50
58929;BMP180;44713;53.378;10.022;2023-03-12T08:55:19;100726.00;;;2.60
58929;BMP180;44713;53.378;10.022;2023-03-12T08:57:44;100717.00;;;2.70
58929;BMP180;44713;53.378;10.022;2023-03-12T09:00:10;100727.00;;;2.70
58929;BMP180;44713;53.378;10.022;2023-03-12T09:02:39;100717.00;;;2.80
58929;BMP180;44713;53.378;10.022;2023-03-12T09:05:05;100701.00;;;2.90
58929;BMP180;44713;53.378;10.022;2023-03-12T09:07:30;100706.00;;;3.00
58929;BMP180;44713;53.378;10.022;2023-03-12T09:09:56;100708.00;;;3.10
58929;BMP180;44713;53.378;10.022;2023-03-12T09:12:22;100697.00;;;3.10
58929;BMP180;44713;53.378;10.022;2023-03-12T09:14:48;100698.00;;;3.10
58929;BMP180;44713;53.378;10.022;2023-03-12T09:17:13;100698.00;;;3.10
58929;BMP180;44713;53.378;10.022;2023-03-12T09:19:39;100691.00;;;3.00
58929;BMP180;44713;53.378;10.022;2023-03-12T09:22:04;100679.00;;;3.10
58929;BMP180;44713;53.378;10.022;2023-03-12T09:24:30;100669.00;;;3.10
58929;BMP180;44713;53.378;10.022;2023-03-12T09:26:55;100669.00;;;3.10
58929;BMP180;44713;53.378;10.022;2023-03-12T09:29:20;100673.00;;;3.00
58929;BMP180;44713;53.378;10.022;2023-03-12T09:31:46;100662.00;;;3.10
58929;BMP180;44713;53.378;10.022;2023-03-12T09:34:11;100664.00;;;3.20
58929;BMP180;44713;53.378;10.022;2023-03-12T09:36:36;100660.00;;;3.30
58929;BMP180;44713;53.378;10.022;2023-03-12T09:39:02;100652.00;;;3.50
58929;BMP180;44713;53.378;10.022;2023-03-12T09:41:30;100653.00;;;3.50
58929;BMP180;44713;53.378;10.022;2023-03-12T09:44:02;100650.00;;;3.70
58929;BMP180;44713;53.378;10.022;2023-03-12T09:46:35;100636.00;;;3.70
58929;BMP180;44713;53.378;10.022;2023-03-12T09:49:05;100632.00;;;3.80
58929;BMP180;44713;53.378;10.022;2023-03-12T09:51:37;100615.00;;;3.80
58929;BMP180;44713;53.378;10.022;2023-03-12T09:54:06;100619.00;;;3.80
58929;BMP180;44713;53.378;10.022;2023-03-12T09:56:37;100622.00;;;3.90
58929;BMP180;44713;53.378;10.022;2023-03-12T09:59:02;100617.00;;;3.90
58929;BMP180;44713;53.378;10.022;2023-03-12T10:01:37;100618.00;;;4.00
58929;BMP180;44713;53.378;10.022;2023-03-12T10:09:26;100588.00;;;4.40
58929;BMP180;44713;53.378;10.022;2023-03-12T10:12:23;100578.00;;;4.30
58929;BMP180;44713;53.378;10.022;2023-03-12T10:20:32;100542.00;;;4.30
58929;BMP180;44713;53.378;10.022;2023-03-12T10:23:24;100533.00;;;4.30
58929;BMP180;44713;53.378;10.022;2023-03-12T10:26:15;100532.00;;;4.40
58929;BMP180;44713;53.378;10.022;2023-03-12T10:28:47;100530.00;;;4.70
58929;BMP180;44713;53.378;10.022;2023-03-12T10:31:18;100522.00;;;4.70
58929;BMP180;44713;53.378;10.022;2023-03-12T10:33:50;100510.00;;;4.70
58929;BMP180;44713;53.378;10.022;2023-03-12T10:36:20;100508.00;;;4.70
58929;BMP180;44713;53.378;10.022;2023-03-12T10:38:47;100508.00;;;4.70
58929;BMP180;44713;53.378;10.022;2023-03-12T10:41:18;100502.00;;;4.80
58929;BMP180;44713;53.378;10.022;2023-03-12T10:43:44;100498.00;;;4.80
58929;BMP180;44713;53.378;10.022;2023-03-12T10:48:38;100494.00;;;4.80
58929;BMP180;44713;53.378;10.022;2023-03-12T10:51:06;100482.00;;;4.90
58929;BMP180;44713;53.378;10.022;2023-03-12T10:53:39;100479.00;;;4.80
58929;BMP180;44713;53.378;10.022;2023-03-12T10:56:09;100482.00;;;4.90
58929;BMP180;44713;53.378;10.022;2023-03-12T10:58:44;100481.00;;;5.00
58929;BMP180;44713;53.378;10.022;2023-03-12T11:01:22;100480.00;;;5.00
58929;BMP180;44713;53.378;10.022;2023-03-12T11:03:49;100481.00;;;5.00
58929;BMP180;44713;53.378;10.022;2023-03-12T11:06:27;100476.00;;;5.00
58929;BMP180;44713;53.378;10.022;2023-03-12T11:11:35;100445.00;;;5.10
58929;BMP180;44713;53.378;10.022;2023-03-12T11:16:37;100446.00;;;5.10
58929;BMP180;44713;53.378;10.022;2023-03-12T11:19:04;100436.00;;;5.10
58929;BMP180;44713;53.378;10.022;2023-03-12T11:21:32;100441.00;;;5.10
58929;BMP180;44713;53.378;10.022;2023-03-12T11:26:30;100441.00;;;5.10
58929;BMP180;44713;53.378;10.022;2023-03-12T11:29:16;100443.00;;;5.20
58929;BMP180;44713;53.378;10.022;2023-03-12T11:32:14;100449.00;;;5.20
58929;BMP180;44713;53.378;10.022;2023-03-12T11:34:41;100460.00;;;5.20
58929;BMP180;44713;53.378;10.022;2023-03-12T11:40:05;100464.00;;;5.10
58929;BMP180;44713;53.378;10.022;2023-03-12T11:56:50;100442.00;;;5.00
58929;BMP180;44713;53.378;10.022;2023-03-12T12:02:18;100442.00;;;4.80
58929;BMP180;44713;53.378;10.022;2023-03-12T12:10:27;100429.00;;;4.80
58929;BMP180;44713;53.378;10.022;2023-03-12T12:16:13;100434.00;;;4.80
58929;BMP180;44713;53.378;10.022;2023-03-12T12:19:03;100428.00;;;5.00
58929;BMP180;44713;53.378;10.022;2023-03-12T12:24:38;100408.00;;;5.00
58929;BMP180;44713;53.378;10.022;2023-03-12T12:27:17;100419.00;;;5.00
58929;BMP180;44713;53.378;10.022;2023-03-12T12:37:58;100420.00;;;4.70
58929;BMP180;44713;53.378;10.022;2023-03-12T12:40:29;100416.00;;;4.70
58929;BMP180;44713;53.378;10.022;2023-03-12T12:43:05;100405.00;;;4.80
58929;BMP180;44713;53.378;10.022;2023-03-12T12:45:31;100410.00;;;4.90
58929;BMP180;44713;53.378;10.022;2023-03-12T12:50:36;100401.00;;;4.90
58929;BMP180;44713;53.378;10.022;2023-03-12T12:53:23;100406.00;;;4.80
58929;BMP180;44713;53.378;10.022;2023-03-12T12:56:04;100413.00;;;4.80
58929;BMP180;44713;53.378;10.022;2023-03-12T12:58:59;100402.00;;;4.90
58929;BMP180;44713;53.378;10.022;2023-03-12T13:01:28;100401.00;;;4.70
58929;BMP180;44713;53.378;10.022;2023-03-12T13:03:59;100391.00;;;4.50
58929;BMP180;44713;53.378;10.022;2023-03-12T13:07:00;100381.00;;;4.40
58929;BMP180;44713;53.378;10.022;2023-03-12T13:09:47;100376.00;;;4.40
58929;BMP180;44713;53.378;10.022;2023-03-12T13:12:40;100376.00;;;4.40
58929;BMP180;44713;53.378;10.022;2023-03-12T13:20:20;100373.00;;;4.50
58929;BMP180;44713;53.378;10.022;2023-03-12T13:23:28;100378.00;;;4.40
58929;BMP180;44713;53.378;10.022;2023-03-12T13:28:32;100364.00;;;4.40
58929;BMP180;44713;53.378;10.022;2023-03-12T13:31:02;100359.00;;;4.50
58929;BMP180;44713;53.378;10.022;2023-03-12T13:33:43;100355.00;;;4.60
58929;BMP180;44713;53.378;10.022;2023-03-12T13:38:37;100354.00;;;4.60
58929;BMP180;44713;53.378;10.022;2023-03-12T13:41:05;100348.00;;;4.60
58929;BMP180;44713;53.378;10.022;2023-03-12T13:43:46;100342.00;;;4.60
58929;BMP180;44713;53.378;10.022;2023-03-12T13:48:44;100341.00;;;4.70
58929;BMP180;44713;53.378;10.022;2023-03-12T13:51:17;100344.00;;;4.70
58929;BMP180;44713;53.378;10.022;2023-03-12T13:53:51;100343.00;;;4.50
58929;BMP180;44713;53.378;10.022;2023-03-12T13:56:19;100346.00;;;4.60
58929;BMP180;44713;53.378;10.022;2023-03-12T13:58:59;100347.00;;;4.50
58929;BMP180;44713;53.378;10.022;2023-03-12T14:01:31;100332.00;;;4.30
58929;BMP180;44713;53.378;10.022;2023-03-12T14:04:03;100333.00;;;4.20
58929;BMP180;44713;53.378;10.022;2023-03-12T14:06:34;100342.00;;;4.10
58929;BMP180;44713;53.378;10.022;2023-03-12T14:09:19;100345.00;;;4.10
58929;BMP180;44713;53.378;10.022;2023-03-12T14:12:05;100324.00;;;4.00
58929;BMP180;44713;53.378;10.022;2023-03-12T14:14:42;100324.00;;;4.00
58929;BMP180;44713;53.378;10.022;2023-03-12T14:17:20;100316.00;;;4.00
58929;BMP180;44713;53.378;10.022;2023-03-12T14:19:54;100305.00;;;4.10
58929;BMP180;44713;53.378;10.022;2023-03-12T14:22:21;100313.00;;;4.10
58929;BMP180;44713;53.378;10.022;2023-03-12T14:24:52;100305.00;;;4.00
58929;BMP180;44713;53.378;10.022;2023-03-12T14:27:25;100289.00;;;4.00
58929;BMP180;44713;53.378;10.022;2023-03-12T14:30:06;100288.00;;;3.90
58929;BMP180;44713;53.378;10.022;2023-03-12T14:32:34;100290.00;;;3.90
58929;BMP180;44713;53.378;10.022;2023-03-12T14:35:18;100282.00;;;3.80
58929;BMP180;44713;53.378;10.022;2023-03-12T14:37:52;100284.00;;;3.80
58929;BMP180;44713;53.378;10.022;2023-03-12T14:42:45;100283.00;;;4.00
58929;BMP180;44713;53.378;10.022;2023-03-12T14:45:17;100285.00;;;4.00
58929;BMP180;44713;53.378;10.022;2023-03-12T14:47:51;100281.00;;;3.90
58929;BMP180;44713;53.378;10.022;2023-03-12T14:50:27;100276.00;;;3.90
58929;BMP180;44713;53.378;10.022;2023-03-12T14:52:53;100275.00;;;4.00
58929;BMP180;44713;53.378;10.022;2023-03-12T14:55:22;100258.00;;;3.90
58929;BMP180;44713;53.378;10.022;2023-03-12T14:57:48;100260.00;;;3.80
58929;BMP180;44713;53.378;10.022;2023-03-12T15:00:26;100252.00;;;3.80
58929;BMP180;44713;53.378;10.022;2023-03-12T15:02:53;100249.00;;;3.70
58929;BMP180;44713;53.378;10.022;2023-03-12T15:05:20;100255.00;;;3.70
58929;BMP180;44713;53.378;10.022;2023-03-12T15:07:48;100245.00;;;3.60
58929;BMP180;44713;53.378;10.022;2023-03-12T15:10:25;100249.00;;;3.60
58929;BMP180;44713;53.378;10.022;2023-03-12T15:12:53;100248.00;;;3.50
58929;BMP180;44713;53.378;10.022;2023-03-12T15:15:39;100232.00;;;3.50
58929;BMP180;44713;53.378;10.022;2023-03-12T15:18:10;100240.00;;;3.40
58929;BMP180;44713;53.378;10.022;2023-03-12T15:20:36;100227.00;;;3.40
58929;BMP180;44713;53.378;10.022;2023-03-12T15:23:02;100215.00;;;3.30